createdAt,value
2022-11-22T00:00:02.943Z,2.60
2022-11-22T00:02:34.241Z,2.60
2022-11-22T00:05:03.774Z,2.60
2022-11-22T00:07:30.989Z,2.60
2022-11-22T00:09:58.233Z,2.70
2022-11-22T00:12:26.504Z,2.70
2022-11-22T00:14:56.858Z,2.80
2022-11-22T00:17:24.394Z,2.80
2022-11-22T00:19:52.463Z,2.70
2022-11-22T00:22:19.693Z,2.70
2022-11-22T00:24:47.092Z,2.70
2022-11-22T00:27:14.292Z,2.60
2022-11-22T00:29:42.583Z,2.60
2022-11-22T00:32:09.874Z,2.60
2022-11-22T00:34:38.105Z,2.50
2022-11-22T00:37:08.059Z,2.50
2022-11-22T00:39:35.594Z,2.50
2022-11-22T00:42:02.855Z,2.50
2022-11-22T00:44:30.163Z,2.50
2022-11-22T00:46:57.535Z,2.50
2022-11-22T00:49:24.743Z,2.40
2022-11-22T00:51:52.352Z,2.40
2022-11-22T00:54:19.531Z,2.30
2022-11-22T00:56:46.874Z,2.30
2022-11-22T00:59:17.122Z,2.10
2022-11-22T01:01:44.503Z,1.90
2022-11-22T01:04:11.874Z,1.90
2022-11-22T01:06:39.193Z,1.80
2022-11-22T01:09:06.442Z,1.80
2022-11-22T01:11:33.734Z,1.80
2022-11-22T01:14:03.166Z,1.70
2022-11-22T01:16:30.453Z,1.70
2022-11-22T01:18:57.704Z,1.70
2022-11-22T01:21:25.293Z,1.60
2022-11-22T01:23:52.473Z,1.70
2022-11-22T01:26:19.800Z,1.60
2022-11-22T01:28:48.022Z,1.60
2022-11-22T01:31:15.302Z,1.50
2022-11-22T01:33:43.536Z,1.50
2022-11-22T01:36:11.695Z,1.40
2022-11-22T01:38:38.893Z,1.40
2022-11-22T01:41:06.095Z,1.40
2022-11-22T01:43:33.232Z,1.40
2022-11-22T01:46:18.792Z,1.50
2022-11-22T01:49:09.362Z,1.40
2022-11-22T01:51:40.723Z,1.40
2022-11-22T01:54:16.343Z,1.40
2022-11-22T01:56:47.896Z,1.40
2022-11-22T01:59:19.531Z,1.50
2022-11-22T02:01:49.642Z,1.50
2022-11-22T02:04:18.792Z,1.50
2022-11-22T02:06:53.273Z,1.60
2022-11-22T02:09:23.132Z,1.60
2022-11-22T02:11:54.106Z,1.60
2022-11-22T02:14:27.053Z,1.60
2022-11-22T02:16:54.674Z,1.70
2022-11-22T02:19:42.234Z,1.70
2022-11-22T02:22:32.414Z,1.70
2022-11-22T02:25:28.582Z,1.70
2022-11-22T02:27:56.662Z,1.80
2022-11-22T02:30:24.099Z,1.80
2022-11-22T02:32:51.402Z,1.80
2022-11-22T02:35:27.983Z,1.80
2022-11-22T02:38:09.813Z,1.90
2022-11-22T02:40:49.795Z,1.90
2022-11-22T02:43:26.723Z,2.00
2022-11-22T02:45:54.013Z,2.00
2022-11-22T02:48:22.266Z,2.00
2022-11-22T02:50:49.506Z,2.00
2022-11-22T02:53:17.673Z,2.00
2022-11-22T02:55:45.032Z,2.10
2022-11-22T02:58:13.283Z,2.10
2022-11-22T03:00:41.639Z,2.10
2022-11-22T03:03:08.853Z,2.10
2022-11-22T03:05:37.067Z,2.20
2022-11-22T03:08:04.263Z,2.20
2022-11-22T03:10:31.815Z,2.20
2022-11-22T03:12:59.917Z,2.30
2022-11-22T03:15:27.272Z,2.30
2022-11-22T03:18:03.452Z,2.30
2022-11-22T03:20:32.808Z,2.30
2022-11-22T03:23:03.112Z,2.40
2022-11-22T03:25:31.272Z,2.40
2022-11-22T03:27:59.445Z,2.50
2022-11-22T03:30:26.694Z,2.50
2022-11-22T03:32:53.940Z,2.50
2022-11-22T03:35:21.184Z,2.50
2022-11-22T03:37:48.393Z,2.60
2022-11-22T03:40:15.853Z,2.60
2022-11-22T03:42:44.015Z,2.60
2022-11-22T03:45:12.273Z,2.60
2022-11-22T03:47:39.453Z,2.60
2022-11-22T03:50:07.314Z,2.60
2022-11-22T03:52:35.523Z,2.60
2022-11-22T03:55:03.945Z,2.70
2022-11-22T03:57:32.294Z,2.60
2022-11-22T03:59:59.513Z,2.70
2022-11-22T04:02:26.707Z,2.70
2022-11-22T04:04:54.019Z,2.70
2022-11-22T04:07:22.249Z,2.70
2022-11-22T04:09:49.559Z,2.80
2022-11-22T04:12:17.783Z,2.80
2022-11-22T04:15:09.424Z,2.80
2022-11-22T04:17:41.014Z,2.80
2022-11-22T04:20:48.563Z,2.80
2022-11-22T04:23:22.753Z,2.80
2022-11-22T04:25:52.826Z,2.80
2022-11-22T04:29:08.301Z,2.80
2022-11-22T04:31:32.666Z,2.90
2022-11-22T04:33:59.863Z,2.90
2022-11-22T04:36:27.203Z,2.90
2022-11-22T04:38:54.453Z,2.90
2022-11-22T04:41:23.534Z,3.00
2022-11-22T04:44:09.293Z,3.00
2022-11-22T04:46:36.616Z,3.00
2022-11-22T04:49:04.183Z,3.00
2022-11-22T04:51:49.852Z,3.00
2022-11-22T04:54:17.223Z,3.00
2022-11-22T04:56:44.526Z,3.00
2022-11-22T04:59:12.225Z,3.00
2022-11-22T05:01:39.346Z,3.10
2022-11-22T05:04:06.635Z,3.10
2022-11-22T05:06:33.715Z,3.10
2022-11-22T05:09:01.986Z,3.10
2022-11-22T05:11:31.124Z,3.10
2022-11-22T05:13:58.464Z,3.20
2022-11-22T05:16:25.603Z,3.20
2022-11-22T05:19:01.781Z,3.30
2022-11-22T05:21:30.364Z,3.30
2022-11-22T05:23:57.718Z,3.30
2022-11-22T05:26:33.604Z,3.30
2022-11-22T05:29:09.243Z,3.30
2022-11-22T05:31:38.565Z,3.40
2022-11-22T05:34:06.894Z,3.30
2022-11-22T05:36:35.103Z,3.40
2022-11-22T05:39:03.535Z,3.40
2022-11-22T05:41:30.944Z,3.40
2022-11-22T05:43:59.213Z,3.50
2022-11-22T05:46:28.823Z,3.40
2022-11-22T05:48:57.994Z,3.50
2022-11-22T05:51:33.676Z,3.50
2022-11-22T05:54:02.477Z,3.50
2022-11-22T05:56:30.864Z,3.50
2022-11-22T05:58:59.656Z,3.50
2022-11-22T06:01:26.944Z,3.50
2022-11-22T06:03:54.585Z,3.50
2022-11-22T06:06:22.115Z,3.50
2022-11-22T06:08:51.563Z,3.50
2022-11-22T06:11:22.551Z,3.50
2022-11-22T06:13:56.004Z,3.50
2022-11-22T06:16:24.825Z,3.50
2022-11-22T06:18:54.146Z,3.50
2022-11-22T06:21:24.164Z,3.50
2022-11-22T06:23:54.084Z,3.60
2022-11-22T06:26:22.973Z,3.60
2022-11-22T06:28:51.176Z,3.60
2022-11-22T06:31:24.660Z,3.60
2022-11-22T06:33:54.745Z,3.60
2022-11-22T06:36:25.523Z,3.60
2022-11-22T06:38:53.586Z,3.60
2022-11-22T06:41:24.333Z,3.60
2022-11-22T06:43:53.122Z,3.60
2022-11-22T06:46:22.598Z,3.50
2022-11-22T06:48:50.362Z,3.50
2022-11-22T06:51:21.799Z,3.50
2022-11-22T06:53:50.340Z,3.50
2022-11-22T06:56:23.942Z,3.40
2022-11-22T06:58:52.642Z,3.40
2022-11-22T07:01:28.611Z,3.40
2022-11-22T07:04:00.999Z,3.40
2022-11-22T07:06:31.428Z,3.40
2022-11-22T07:09:00.323Z,3.40
2022-11-22T07:11:29.924Z,3.40
2022-11-22T07:14:05.443Z,3.30
2022-11-22T07:16:35.358Z,3.40
2022-11-22T07:19:02.566Z,3.40
2022-11-22T07:21:30.792Z,3.40
2022-11-22T07:23:57.928Z,3.30
2022-11-22T07:26:26.532Z,3.40
2022-11-22T07:28:53.687Z,3.40
2022-11-22T07:31:21.516Z,3.40
2022-11-22T07:33:48.816Z,3.40
2022-11-22T07:36:18.405Z,3.40
2022-11-22T07:38:45.968Z,3.40
2022-11-22T07:41:13.838Z,3.40
2022-11-22T07:43:41.572Z,3.40
2022-11-22T07:46:24.935Z,3.40
2022-11-22T07:48:52.345Z,3.40
2022-11-22T07:51:19.562Z,3.40
2022-11-22T07:53:46.802Z,3.40
2022-11-22T07:56:14.393Z,3.40
2022-11-22T07:58:41.767Z,3.40
2022-11-22T08:01:14.232Z,3.40
2022-11-22T08:03:42.614Z,3.40
2022-11-22T08:06:12.453Z,3.40
2022-11-22T08:08:40.441Z,3.40
2022-11-22T08:11:08.621Z,3.40
2022-11-22T08:13:36.870Z,3.40
2022-11-22T08:16:07.581Z,3.40
2022-11-22T08:18:36.331Z,3.40
2022-11-22T08:21:06.121Z,3.40
2022-11-22T08:23:33.678Z,3.40
2022-11-22T08:26:01.621Z,3.50
2022-11-22T08:28:29.322Z,3.50
2022-11-22T08:31:02.882Z,3.50
2022-11-22T08:33:30.082Z,3.50
2022-11-22T08:35:57.275Z,3.50
2022-11-22T08:38:24.590Z,3.40
2022-11-22T08:40:52.213Z,3.40
2022-11-22T08:43:20.365Z,3.50
2022-11-22T08:45:53.441Z,3.50
2022-11-22T08:48:22.415Z,3.50
2022-11-22T08:50:52.537Z,3.50
2022-11-22T08:53:19.817Z,3.50
2022-11-22T08:55:47.287Z,3.50
2022-11-22T08:58:14.569Z,3.50
2022-11-22T09:00:41.963Z,3.50
2022-11-22T09:03:09.716Z,3.60
2022-11-22T09:08:24.813Z,3.60
2022-11-22T09:10:53.042Z,3.60
2022-11-22T09:13:21.213Z,3.70
2022-11-22T09:15:48.330Z,3.60
2022-11-22T09:18:15.579Z,3.70
2022-11-22T09:20:42.724Z,3.70
2022-11-22T09:23:09.888Z,3.70
2022-11-22T09:25:37.061Z,3.80
2022-11-22T09:28:04.348Z,3.70
2022-11-22T09:30:31.846Z,3.80
2022-11-22T09:32:58.951Z,3.80
2022-11-22T09:35:26.083Z,3.80
2022-11-22T09:37:53.297Z,3.90
2022-11-22T09:40:21.061Z,3.90
2022-11-22T09:43:08.241Z,3.90
2022-11-22T09:46:08.522Z,4.00
2022-11-22T09:48:44.487Z,4.00
2022-11-22T09:51:21.773Z,4.00
2022-11-22T09:53:58.133Z,4.00
2022-11-22T09:56:27.246Z,4.10
2022-11-22T09:59:12.911Z,4.10
2022-11-22T10:01:53.943Z,4.10
2022-11-22T10:04:41.122Z,4.20
2022-11-22T10:07:17.354Z,4.20
2022-11-22T10:09:49.966Z,4.30
2022-11-22T10:12:32.239Z,4.20
2022-11-22T10:15:12.326Z,4.30
2022-11-22T10:18:14.880Z,4.30
2022-11-22T10:20:48.592Z,4.30
2022-11-22T10:23:25.027Z,4.40
2022-11-22T10:26:13.987Z,4.40
2022-11-22T10:29:06.472Z,4.40
2022-11-22T10:31:39.441Z,4.40
2022-11-22T10:34:18.544Z,4.50
2022-11-22T10:36:57.371Z,4.50
2022-11-22T10:39:59.246Z,4.50
2022-11-22T10:42:54.153Z,4.50
2022-11-22T10:45:40.832Z,4.50
2022-11-22T10:48:21.995Z,4.50
2022-11-22T10:51:26.933Z,4.60
2022-11-22T10:54:18.144Z,4.70
2022-11-22T10:57:17.982Z,4.70
2022-11-22T11:00:03.128Z,4.70
2022-11-22T11:03:03.204Z,4.80
2022-11-22T11:06:15.307Z,4.80
2022-11-22T11:09:12.139Z,4.70
2022-11-22T11:11:28.972Z,4.70
2022-11-22T11:14:13.287Z,4.70
2022-11-22T11:16:41.071Z,4.60
2022-11-22T11:19:11.392Z,4.70
2022-11-22T11:21:38.524Z,4.70
2022-11-22T11:24:16.531Z,4.70
2022-11-22T11:26:53.798Z,4.80
2022-11-22T11:29:49.763Z,4.70
2022-11-22T11:32:22.202Z,4.90
2022-11-22T11:35:01.707Z,4.90
2022-11-22T11:37:36.992Z,5.00
2022-11-22T11:40:06.613Z,5.10
2022-11-22T11:42:35.771Z,5.10
2022-11-22T11:45:33.198Z,5.20
2022-11-22T11:48:00.443Z,5.20
2022-11-22T11:50:31.107Z,5.30
2022-11-22T11:53:05.768Z,5.30
2022-11-22T11:55:36.517Z,5.30
2022-11-22T11:58:17.495Z,5.40
2022-11-22T12:00:45.798Z,5.40
2022-11-22T12:03:17.969Z,5.30
2022-11-22T12:05:45.852Z,5.20
2022-11-22T12:08:34.218Z,5.20
2022-11-22T12:11:20.889Z,5.20
2022-11-22T12:16:46.687Z,5.20
2022-11-22T12:19:28.737Z,5.20
2022-11-22T12:22:29.419Z,5.30
2022-11-22T12:25:33.587Z,5.30
2022-11-22T12:28:28.072Z,5.30
2022-11-22T12:31:32.337Z,5.20
2022-11-22T12:34:12.042Z,5.20
2022-11-22T12:36:53.047Z,5.20
2022-11-22T12:39:26.783Z,5.20
2022-11-22T12:42:17.452Z,5.20
2022-11-22T12:44:55.277Z,5.30
2022-11-22T12:47:34.284Z,5.20
2022-11-22T12:50:38.617Z,5.20
2022-11-22T12:53:15.413Z,5.20
2022-11-22T12:56:17.302Z,5.20
2022-11-22T12:58:50.321Z,5.30
2022-11-22T13:01:38.159Z,5.30
2022-11-22T13:04:11.559Z,5.20
2022-11-22T13:06:59.372Z,5.30
2022-11-22T13:09:36.483Z,5.20
2022-11-22T13:12:12.633Z,5.20
2022-11-22T13:14:48.037Z,5.20
2022-11-22T13:17:17.672Z,5.20
2022-11-22T13:20:05.877Z,5.20
2022-11-22T13:22:57.492Z,5.20
2022-11-22T13:26:00.804Z,5.30
2022-11-22T13:28:33.123Z,5.30
2022-11-22T13:31:06.766Z,5.30
2022-11-22T13:33:36.371Z,5.30
2022-11-22T13:36:23.152Z,5.30
2022-11-22T13:38:57.876Z,5.30
2022-11-22T13:42:04.978Z,5.30
2022-11-22T13:44:32.562Z,5.30
2022-11-22T13:47:03.553Z,5.30
2022-11-22T13:49:48.858Z,5.30
2022-11-22T13:52:16.838Z,5.30
2022-11-22T13:54:47.087Z,5.30
2022-11-22T13:57:34.811Z,5.20
2022-11-22T14:00:14.412Z,5.20
2022-11-22T14:02:48.940Z,5.20
2022-11-22T14:05:41.050Z,5.20
2022-11-22T14:08:35.614Z,5.10
2022-11-22T14:11:12.349Z,5.10
2022-11-22T14:13:48.445Z,5.10
2022-11-22T14:16:26.147Z,5.00
2022-11-22T14:19:17.670Z,5.00
2022-11-22T14:22:17.722Z,5.00
2022-11-22T14:25:10.461Z,4.90
2022-11-22T14:28:18.593Z,4.80
2022-11-22T14:30:53.824Z,4.80
2022-11-22T14:33:26.878Z,4.80
2022-11-22T14:36:06.569Z,4.70
2022-11-22T14:38:35.875Z,4.70
2022-11-22T14:41:28.069Z,4.70
2022-11-22T14:44:20.063Z,4.60
2022-11-22T14:46:56.890Z,4.60
2022-11-22T14:49:44.962Z,4.60
2022-11-22T14:52:24.532Z,4.60
2022-11-22T14:54:58.207Z,4.50
2022-11-22T14:57:28.477Z,4.50
2022-11-22T15:00:11.104Z,4.50
2022-11-22T15:03:02.958Z,4.40
2022-11-22T15:09:17.050Z,4.40
2022-11-22T15:09:20.092Z,4.50
2022-11-22T15:11:36.814Z,4.40
2022-11-22T15:14:43.847Z,4.40
2022-11-22T15:58:05.004Z,4.10
2022-11-22T16:00:32.999Z,4.10
2022-11-22T16:03:03.033Z,4.10
2022-11-22T16:06:10.076Z,4.10
2022-11-22T16:08:26.432Z,4.10
2022-11-22T16:10:58.417Z,4.20
2022-11-22T16:13:28.207Z,4.20
2022-11-22T16:16:13.941Z,4.10
2022-11-22T16:18:43.370Z,4.10
2022-11-22T16:21:11.388Z,4.10
2022-11-22T16:23:45.416Z,4.00
2022-11-22T16:26:29.631Z,4.00
2022-11-22T16:29:17.281Z,4.00
2022-11-22T16:31:44.541Z,4.00
2022-11-22T16:34:15.327Z,4.00
2022-11-22T16:36:42.612Z,4.00
2022-11-22T16:39:10.113Z,4.00
2022-11-22T16:41:38.282Z,3.90
2022-11-22T16:44:13.188Z,3.90
2022-11-22T16:46:44.062Z,3.90
2022-11-22T16:49:22.808Z,3.90
2022-11-22T16:51:51.241Z,3.90
2022-11-22T16:54:20.360Z,3.80
2022-11-22T16:56:48.176Z,3.70
2022-11-22T16:59:15.552Z,3.60
2022-11-22T17:01:43.985Z,3.50
2022-11-22T17:04:22.976Z,3.50
2022-11-22T17:06:50.747Z,3.50
2022-11-22T17:09:18.013Z,3.50
2022-11-22T17:11:46.448Z,3.40
2022-11-22T17:14:18.217Z,3.30
2022-11-22T17:16:46.121Z,3.40
2022-11-22T17:19:37.567Z,3.40
2022-11-22T17:22:01.392Z,3.30
2022-11-22T17:24:29.715Z,3.20
2022-11-22T17:26:57.109Z,3.10
2022-11-22T17:32:15.014Z,3.00
2022-11-22T17:34:42.322Z,3.00
2022-11-22T17:37:13.876Z,3.00
2022-11-22T17:39:41.209Z,3.00
2022-11-22T17:42:08.976Z,3.00
2022-11-22T17:44:36.236Z,3.10
2022-11-22T17:47:03.861Z,3.20
2022-11-22T17:49:31.429Z,3.30
2022-11-22T17:51:59.036Z,3.30
2022-11-22T17:54:26.247Z,3.30
2022-11-22T17:56:53.392Z,3.40
2022-11-22T17:59:20.671Z,3.40
2022-11-22T18:01:47.873Z,3.40
2022-11-22T18:04:17.307Z,3.50
2022-11-22T18:06:44.686Z,3.40
2022-11-22T18:09:12.368Z,3.50
2022-11-22T18:11:39.632Z,3.60
2022-11-22T18:14:07.322Z,3.60
2022-11-22T18:16:34.540Z,3.70
2022-11-22T18:19:01.816Z,3.60
2022-11-22T18:21:31.121Z,3.60
2022-11-22T18:23:59.373Z,3.60
2022-11-22T18:26:42.619Z,3.60
2022-11-22T18:29:41.677Z,3.60
2022-11-22T18:32:00.547Z,3.60
2022-11-22T18:34:28.762Z,3.60
2022-11-22T18:39:44.201Z,3.70
2022-11-22T18:42:16.377Z,3.80
2022-11-22T18:44:43.658Z,3.70
2022-11-22T18:47:11.825Z,3.70
2022-11-22T18:49:40.240Z,3.70
2022-11-22T18:52:10.769Z,3.70
2022-11-22T18:54:40.720Z,3.70
2022-11-22T18:57:07.838Z,3.70
2022-11-22T18:59:35.141Z,3.80
2022-11-22T19:02:02.287Z,3.80
2022-11-22T19:04:30.477Z,3.80
2022-11-22T19:06:58.599Z,3.90
2022-11-22T19:09:25.848Z,3.90
2022-11-22T19:11:58.634Z,3.80
2022-11-22T19:14:29.387Z,3.80
2022-11-22T19:16:57.083Z,3.90
2022-11-22T19:19:24.912Z,3.80
2022-11-22T19:21:53.182Z,3.80
2022-11-22T19:24:20.357Z,3.90
2022-11-22T19:26:48.571Z,3.90
2022-11-22T19:29:16.197Z,3.90
2022-11-22T19:31:43.557Z,3.90
2022-11-22T19:34:10.952Z,3.90
2022-11-22T19:36:40.757Z,3.90
2022-11-22T19:39:13.326Z,3.90
2022-11-22T19:41:44.956Z,3.90
2022-11-22T19:44:12.350Z,3.90
2022-11-22T19:46:41.634Z,4.00
2022-11-22T19:49:09.438Z,4.00
2022-11-22T19:51:37.258Z,4.00
2022-11-22T19:54:04.962Z,4.00
2022-11-22T19:56:35.619Z,4.00
2022-11-22T19:59:05.416Z,4.00
2022-11-22T20:01:34.747Z,3.90
2022-11-22T20:04:05.948Z,3.90
2022-11-22T20:06:36.459Z,3.90
2022-11-22T20:09:10.176Z,4.00
2022-11-22T20:11:38.808Z,4.00
2022-11-22T20:14:06.630Z,3.90
2022-11-22T20:16:34.003Z,3.90
2022-11-22T20:19:04.659Z,3.90
2022-11-22T20:21:33.352Z,3.90
2022-11-22T20:24:01.597Z,3.90
2022-11-22T20:26:30.486Z,4.00
2022-11-22T20:29:07.599Z,4.00
2022-11-22T20:31:39.648Z,4.00
2022-11-22T20:34:08.253Z,3.90
2022-11-22T20:36:36.320Z,3.90
2022-11-22T20:39:09.737Z,4.00
2022-11-22T20:41:39.455Z,4.00
2022-11-22T20:44:10.865Z,4.00
2022-11-22T20:46:38.489Z,4.00
2022-11-22T20:49:06.740Z,4.00
2022-11-22T20:51:40.098Z,4.00
2022-11-22T20:54:19.618Z,4.10
2022-11-22T20:56:56.091Z,4.10
2022-11-22T20:59:23.438Z,4.10
2022-11-22T21:01:51.384Z,4.00
2022-11-22T21:04:23.452Z,4.00
2022-11-22T21:06:52.013Z,4.10
2022-11-22T21:09:20.419Z,4.00
2022-11-22T21:11:48.311Z,4.00
2022-11-22T21:14:16.247Z,4.00
2022-11-22T21:16:46.711Z,4.10
2022-11-22T21:19:15.728Z,4.00
2022-11-22T21:21:43.527Z,4.00
2022-11-22T21:24:13.406Z,4.00
2022-11-22T21:26:41.505Z,4.00
2022-11-22T21:29:16.436Z,4.00
2022-11-22T21:31:44.334Z,4.00
2022-11-22T21:34:12.864Z,4.00
2022-11-22T21:36:40.237Z,4.00
2022-11-22T21:39:07.619Z,4.10
2022-11-22T21:41:40.901Z,4.10
2022-11-22T21:44:11.572Z,4.00
2022-11-22T21:46:40.987Z,4.00
2022-11-22T21:49:08.938Z,4.10
2022-11-22T21:51:41.108Z,4.00
2022-11-22T21:54:09.998Z,4.00
2022-11-22T21:56:38.385Z,4.00
2022-11-22T21:59:06.188Z,4.10
2022-11-22T22:01:33.773Z,4.00
2022-11-22T22:04:04.619Z,4.00
2022-11-22T22:06:33.741Z,4.00
2022-11-22T22:09:01.460Z,4.00
2022-11-22T22:11:28.733Z,4.00
2022-11-22T22:13:56.814Z,4.00
2022-11-22T22:16:26.031Z,4.00
2022-11-22T22:18:54.465Z,4.00
2022-11-22T22:21:22.332Z,4.00
2022-11-22T22:23:49.820Z,4.00
2022-11-22T22:26:18.468Z,4.00
2022-11-22T22:28:46.645Z,4.00
2022-11-22T22:31:24.649Z,4.00
2022-11-22T22:33:54.751Z,4.00
2022-11-22T22:36:23.925Z,4.00
2022-11-22T22:38:51.340Z,4.00
2022-11-22T22:41:18.803Z,4.00
2022-11-22T22:43:48.055Z,4.10
2022-11-22T22:46:16.671Z,4.10
2022-11-22T22:48:44.145Z,4.10
2022-11-22T22:51:15.038Z,4.10
2022-11-22T22:53:43.403Z,4.00
2022-11-22T22:56:12.390Z,4.10
2022-11-22T22:58:39.682Z,4.10
2022-11-22T23:01:13.753Z,4.00
2022-11-22T23:03:41.647Z,4.00
2022-11-22T23:06:13.578Z,4.00
2022-11-22T23:08:43.993Z,4.00
2022-11-22T23:11:12.683Z,4.00
2022-11-22T23:13:42.229Z,4.00
2022-11-22T23:16:14.908Z,4.00
2022-11-22T23:18:43.851Z,4.00
2022-11-22T23:21:13.849Z,4.00
2022-11-22T23:23:41.145Z,4.00
2022-11-22T23:26:11.143Z,4.00
2022-11-22T23:28:39.053Z,4.00
2022-11-22T23:31:10.567Z,4.00
2022-11-22T23:33:37.839Z,4.00
2022-11-22T23:36:10.407Z,4.00
2022-11-22T23:38:38.568Z,4.00
2022-11-22T23:41:06.251Z,4.00
2022-11-22T23:43:33.539Z,4.10
2022-11-22T23:46:00.693Z,4.10
2022-11-22T23:48:28.048Z,4.00
2022-11-22T23:50:55.392Z,4.00
2022-11-22T23:53:22.633Z,4.00
2022-11-22T23:55:49.773Z,4.00
2022-11-22T23:58:16.959Z,3.90
